createdAt,value
2023-01-23T00:09:46.252Z,38.85
2023-01-23T00:19:47.460Z,34.50
2023-01-23T00:29:48.791Z,38.53
2023-01-23T00:39:50.932Z,34.63
2023-01-23T00:49:53.939Z,41.40
2023-01-23T00:59:55.181Z,41.00
2023-01-23T01:09:56.379Z,38.15
2023-01-23T01:19:57.576Z,40.47
2023-01-23T01:29:58.788Z,38.60
2023-01-23T01:40:00.185Z,35.50
2023-01-23T01:50:01.387Z,40.53
2023-01-23T02:00:02.597Z,39.83
2023-01-23T02:10:03.802Z,41.30
2023-01-23T02:20:05.112Z,43.17
2023-01-23T02:30:07.849Z,41.17
2023-01-23T02:40:09.070Z,37.40
2023-01-23T02:50:10.296Z,40.67
2023-01-23T03:00:17.597Z,43.88
2023-01-23T03:10:19.312Z,41.83
2023-01-23T03:20:23.117Z,40.13
2023-01-23T03:30:25.549Z,43.10
2023-01-23T03:40:45.421Z,37.95
2023-01-23T03:50:46.671Z,37.90
2023-01-23T04:00:47.916Z,35.88
2023-01-23T04:10:49.189Z,34.30
2023-01-23T04:20:50.470Z,34.50
2023-01-23T04:30:51.876Z,35.85
2023-01-23T04:40:53.152Z,33.67
2023-01-23T04:50:54.449Z,35.80
2023-01-23T05:00:55.698Z,32.53
2023-01-23T05:10:56.941Z,28.65
2023-01-23T05:20:58.154Z,29.92
2023-01-23T05:30:59.461Z,32.20
2023-01-23T05:41:00.723Z,29.08
2023-01-23T05:51:01.971Z,29.92
2023-01-23T06:01:03.538Z,40.50
2023-01-23T06:11:04.829Z,43.80
2023-01-23T06:21:06.193Z,38.45
2023-01-23T06:31:09.311Z,42.75
2023-01-23T06:41:10.641Z,38.43
2023-01-23T06:51:11.968Z,45.30
2023-01-23T07:01:13.294Z,49.17
2023-01-23T07:11:14.632Z,32.55
2023-01-23T07:21:15.846Z,39.58
2023-01-23T07:31:17.160Z,25.10
2023-01-23T07:41:18.396Z,28.90
2023-01-23T07:51:19.628Z,28.80
2023-01-23T08:01:20.890Z,26.98
2023-01-23T08:11:23.933Z,30.35
2023-01-23T08:21:25.253Z,25.35
2023-01-23T08:31:26.543Z,28.42
2023-01-23T08:41:27.915Z,26.92
2023-01-23T08:51:29.289Z,27.00
2023-01-23T09:01:30.543Z,28.45
2023-01-23T09:11:31.802Z,25.70
2023-01-23T09:21:33.013Z,26.80
2023-01-23T09:31:34.261Z,23.00
2023-01-23T09:41:35.508Z,27.35
2023-01-23T09:51:36.741Z,29.55
2023-01-23T10:01:37.999Z,27.00
2023-01-23T10:11:42.131Z,26.13
2023-01-23T10:21:43.457Z,25.15
2023-01-23T10:31:44.779Z,18.17
2023-01-23T10:41:48.441Z,17.60
2023-01-23T10:51:50.620Z,18.10
2023-01-23T11:01:57.400Z,19.08
2023-01-23T11:12:00.149Z,19.20
2023-01-23T11:22:01.405Z,21.10
2023-01-23T11:32:09.786Z,20.27
2023-01-23T11:42:11.215Z,19.17
2023-01-23T11:52:12.453Z,19.23
2023-01-23T12:02:13.717Z,19.33
2023-01-23T12:12:15.011Z,15.68
2023-01-23T12:22:16.321Z,17.05
2023-01-23T12:32:17.649Z,17.35
2023-01-23T12:42:18.938Z,15.85
2023-01-23T12:52:20.134Z,18.95
2023-01-23T13:02:21.418Z,18.85
2023-01-23T13:12:22.868Z,19.20
2023-01-23T13:22:28.661Z,19.55
2023-01-23T13:32:31.927Z,20.17
2023-01-23T13:42:33.231Z,19.98
2023-01-23T14:23:58.074Z,21.95
2023-01-23T14:34:09.246Z,20.55
2023-01-23T14:44:11.185Z,19.63
2023-01-23T14:54:12.904Z,21.83
2023-01-23T15:04:14.120Z,23.50
2023-01-23T15:14:15.360Z,22.35
2023-01-23T15:24:16.866Z,19.73
2023-01-23T15:34:18.236Z,20.02
2023-01-23T15:44:19.526Z,16.70
2023-01-23T15:54:20.804Z,20.15
2023-01-23T16:04:22.082Z,18.48
2023-01-23T16:14:23.453Z,17.88
2023-01-23T16:24:25.664Z,21.33
2023-01-23T16:34:26.947Z,22.55
2023-01-23T16:44:28.280Z,16.10
2023-01-23T16:54:29.487Z,28.42
2023-01-23T17:04:30.787Z,17.55
2023-01-23T17:14:32.175Z,38.70
2023-01-23T17:24:33.406Z,26.33
2023-01-23T17:34:41.539Z,22.08
2023-01-23T17:44:50.522Z,21.67
2023-01-23T17:54:51.981Z,23.63
2023-01-23T18:04:53.195Z,26.92
2023-01-23T18:14:55.743Z,24.95
2023-01-23T18:24:57.075Z,21.45
2023-01-23T18:34:58.335Z,24.90
2023-01-23T18:44:59.624Z,28.45
2023-01-23T18:55:00.959Z,26.88
2023-01-23T19:05:02.256Z,25.73
2023-01-23T19:15:03.518Z,25.00
2023-01-23T19:25:05.365Z,26.38
2023-01-23T19:35:14.069Z,46.22
2023-01-23T19:45:15.713Z,24.50
2023-01-23T19:55:17.382Z,28.15
2023-01-23T20:05:19.092Z,24.25
2023-01-23T20:15:20.894Z,25.17
2023-01-23T20:25:22.579Z,33.65
2023-01-23T20:35:24.060Z,29.98
2023-01-23T20:45:26.610Z,25.25
2023-01-23T20:55:27.821Z,27.40
2023-01-23T21:05:29.076Z,28.25
2023-01-23T21:15:33.062Z,23.98
2023-01-23T21:25:34.463Z,27.65
2023-01-23T21:35:35.780Z,28.73
2023-01-23T21:45:37.063Z,25.45
2023-01-23T21:55:38.291Z,25.85
2023-01-23T22:05:39.652Z,24.42
2023-01-23T22:15:40.869Z,27.42
2023-01-23T22:25:42.102Z,36.67
2023-01-23T22:35:43.301Z,24.92
2023-01-23T22:45:44.507Z,25.13
2023-01-23T22:55:45.730Z,26.20
2023-01-23T23:05:47.044Z,26.42
2023-01-23T23:15:48.245Z,25.48
2023-01-23T23:25:49.462Z,27.35
2023-01-23T23:35:50.681Z,27.92
2023-01-23T23:45:51.927Z,25.15
2023-01-23T23:55:53.129Z,22.73
